createdAt,value
2022-11-26T00:01:28.288Z,2.10
2022-11-26T00:03:57.801Z,2.14
2022-11-26T00:06:44.997Z,2.14
2022-11-26T00:09:25.071Z,2.04
2022-11-26T00:11:53.218Z,2.07
2022-11-26T00:14:21.436Z,2.16
2022-11-26T00:16:50.440Z,2.17
2022-11-26T00:19:18.715Z,2.09
2022-11-26T00:21:46.844Z,2.10
2022-11-26T00:24:28.293Z,2.14
2022-11-26T00:26:58.949Z,2.12
2022-11-26T00:29:27.156Z,2.09
2022-11-26T00:31:55.380Z,2.11
2022-11-26T00:34:23.536Z,2.17
2022-11-26T00:36:51.736Z,2.22
2022-11-26T00:39:24.838Z,2.23
2022-11-26T00:41:53.675Z,2.06
2022-11-26T00:44:25.063Z,2.10
2022-11-26T00:46:53.235Z,2.14
2022-11-26T00:49:21.571Z,2.13
2022-11-26T00:51:49.828Z,2.14
2022-11-26T00:54:19.807Z,2.13
2022-11-26T00:56:48.775Z,2.09
2022-11-26T00:59:22.312Z,2.12
2022-11-26T01:01:51.212Z,2.16
2022-11-26T01:04:19.287Z,2.19
2022-11-26T01:06:47.570Z,2.21
2022-11-26T01:09:22.398Z,2.19
2022-11-26T01:11:54.078Z,2.19
2022-11-26T01:14:23.615Z,2.20
2022-11-26T01:16:53.820Z,2.22
2022-11-26T01:19:22.067Z,2.22
2022-11-26T01:21:50.290Z,2.22
2022-11-26T01:24:18.175Z,2.28
2022-11-26T01:26:46.420Z,2.33
2022-11-26T01:29:20.049Z,2.29
2022-11-26T01:31:48.619Z,2.29
2022-11-26T01:34:16.937Z,2.26
2022-11-26T01:36:45.192Z,2.19
2022-11-26T01:39:20.436Z,2.16
2022-11-26T01:42:26.208Z,2.18
2022-11-26T01:44:54.211Z,2.10
2022-11-26T01:47:30.598Z,2.02
2022-11-26T01:50:26.755Z,2.09
2022-11-26T01:53:03.040Z,2.08
2022-11-26T01:55:45.283Z,2.13
2022-11-26T01:58:20.518Z,2.15
2022-11-26T02:00:56.083Z,2.18
2022-11-26T02:03:25.096Z,2.22
2022-11-26T02:05:59.611Z,2.18
2022-11-26T02:08:30.410Z,2.17
2022-11-26T02:10:58.566Z,2.10
2022-11-26T02:13:27.192Z,2.12
2022-11-26T02:16:04.976Z,2.15
2022-11-26T02:18:42.222Z,2.24
2022-11-26T02:21:21.215Z,2.30
2022-11-26T02:24:13.872Z,2.33
2022-11-26T02:26:54.106Z,2.31
2022-11-26T02:29:41.067Z,2.31
2022-11-26T02:32:22.775Z,2.32
2022-11-26T02:34:59.250Z,2.37
2022-11-26T02:37:37.350Z,2.37
2022-11-26T02:40:08.937Z,2.31
2022-11-26T02:42:37.194Z,2.31
2022-11-26T02:45:32.024Z,2.36
2022-11-26T02:48:03.231Z,2.36
2022-11-26T02:50:37.266Z,2.35
2022-11-26T02:53:07.546Z,2.39
2022-11-26T02:55:40.597Z,2.43
2022-11-26T02:58:09.230Z,2.42
2022-11-26T03:00:41.664Z,2.43
2022-11-26T03:03:27.457Z,2.34
2022-11-26T03:06:01.587Z,2.31
2022-11-26T03:08:32.191Z,2.27
2022-11-26T03:11:00.384Z,2.31
2022-11-26T03:13:28.867Z,2.33
2022-11-26T03:15:57.218Z,2.34
2022-11-26T03:18:25.574Z,2.28
2022-11-26T03:20:53.839Z,2.30
2022-11-26T03:23:22.040Z,2.33
2022-11-26T03:25:50.200Z,2.33
2022-11-26T03:28:18.804Z,2.40
2022-11-26T03:30:50.339Z,2.45
2022-11-26T03:33:18.983Z,2.50
2022-11-26T03:35:50.201Z,2.52
2022-11-26T03:38:18.579Z,2.53
2022-11-26T03:40:55.320Z,2.55
2022-11-26T03:43:23.775Z,2.52
2022-11-26T03:45:52.034Z,2.50
2022-11-26T03:48:20.599Z,2.51
2022-11-26T03:50:49.003Z,2.55
2022-11-26T03:53:17.321Z,2.59
2022-11-26T03:55:45.754Z,2.63
2022-11-26T03:58:14.014Z,2.62
2022-11-26T04:00:42.287Z,2.58
2022-11-26T04:03:10.561Z,2.61
2022-11-26T04:05:38.820Z,2.67
2022-11-26T04:08:07.787Z,2.69
2022-11-26T04:10:35.986Z,2.73
2022-11-26T04:13:04.213Z,2.76
2022-11-26T04:15:32.557Z,2.73
2022-11-26T04:18:00.560Z,2.70
2022-11-26T04:20:28.779Z,2.70
2022-11-26T04:22:56.979Z,2.72
2022-11-26T04:25:25.087Z,2.73
2022-11-26T04:27:53.150Z,2.76
2022-11-26T04:30:21.311Z,2.81
2022-11-26T04:32:49.952Z,2.84
2022-11-26T04:35:18.307Z,2.87
2022-11-26T04:37:46.586Z,2.88
2022-11-26T04:40:14.777Z,2.86
2022-11-26T04:42:43.032Z,2.84
2022-11-26T04:45:11.869Z,2.85
2022-11-26T04:47:42.874Z,2.89
2022-11-26T04:50:12.492Z,2.90
2022-11-26T04:52:40.540Z,2.92
2022-11-26T04:55:09.091Z,2.90
2022-11-26T04:57:37.421Z,2.87
2022-11-26T05:00:10.087Z,2.90
2022-11-26T05:02:38.394Z,2.87
2022-11-26T05:05:07.157Z,2.85
2022-11-26T05:07:35.867Z,2.87
2022-11-26T05:10:05.840Z,2.92
2022-11-26T05:12:34.931Z,3.05
2022-11-26T05:15:04.444Z,3.04
2022-11-26T05:17:32.998Z,3.03
2022-11-26T05:20:01.156Z,3.02
2022-11-26T05:22:29.320Z,2.99
2022-11-26T05:24:57.479Z,2.99
2022-11-26T05:27:25.625Z,2.99
2022-11-26T05:29:53.760Z,3.00
2022-11-26T05:32:21.952Z,3.01
2022-11-26T05:34:50.188Z,3.02
2022-11-26T05:37:18.397Z,3.03
2022-11-26T05:39:46.580Z,3.01
2022-11-26T05:42:15.566Z,3.03
2022-11-26T05:44:43.760Z,3.01
2022-11-26T05:47:11.920Z,2.99
2022-11-26T05:49:39.840Z,2.99
2022-11-26T05:52:07.977Z,3.01
2022-11-26T05:54:36.367Z,3.03
2022-11-26T05:57:04.740Z,3.01
2022-11-26T05:59:32.911Z,3.01
2022-11-26T06:02:01.085Z,2.99
2022-11-26T06:04:29.557Z,2.98
2022-11-26T06:06:57.700Z,3.00
2022-11-26T06:09:25.846Z,3.01
2022-11-26T06:11:54.606Z,3.01
2022-11-26T06:14:23.147Z,2.99
2022-11-26T06:16:51.409Z,3.00
2022-11-26T06:19:19.862Z,3.00
2022-11-26T06:21:48.034Z,2.99
2022-11-26T06:24:16.222Z,2.97
2022-11-26T06:26:44.479Z,2.97
2022-11-26T06:29:13.284Z,3.01
2022-11-26T06:31:41.523Z,3.01
2022-11-26T06:34:09.697Z,3.01
2022-11-26T06:36:37.896Z,2.99
2022-11-26T06:39:06.225Z,2.98
2022-11-26T06:41:34.572Z,2.95
2022-11-26T06:44:03.596Z,2.86
2022-11-26T06:46:35.387Z,2.83
2022-11-26T06:49:05.257Z,2.82
2022-11-26T06:51:34.155Z,2.81
2022-11-26T06:54:02.641Z,2.83
2022-11-26T06:56:30.839Z,2.83
2022-11-26T06:58:59.059Z,2.79
2022-11-26T07:01:27.456Z,2.76
2022-11-26T07:03:56.016Z,2.75
2022-11-26T07:06:26.637Z,2.76
2022-11-26T07:08:56.939Z,2.74
2022-11-26T07:11:26.225Z,2.71
2022-11-26T07:13:54.795Z,2.73
2022-11-26T07:16:22.894Z,2.77
2022-11-26T07:18:57.739Z,2.79
2022-11-26T07:21:29.460Z,2.80
2022-11-26T07:23:59.172Z,2.84
2022-11-26T07:26:27.325Z,2.82
2022-11-26T07:28:55.476Z,2.82
2022-11-26T07:31:24.673Z,2.84
2022-11-26T07:33:52.845Z,2.88
2022-11-26T07:36:24.546Z,2.88
2022-11-26T07:38:58.815Z,2.89
2022-11-26T07:41:28.647Z,2.89
2022-11-26T07:43:57.116Z,2.92
2022-11-26T07:46:26.925Z,2.87
2022-11-26T07:48:56.878Z,2.77
2022-11-26T07:51:28.408Z,2.70
2022-11-26T07:53:58.926Z,2.75
2022-11-26T07:56:27.527Z,2.80
2022-11-26T07:58:55.689Z,2.81
2022-11-26T08:01:30.500Z,2.76
2022-11-26T08:04:01.157Z,2.77
2022-11-26T08:06:30.582Z,2.79
2022-11-26T08:09:00.586Z,2.81
2022-11-26T08:11:32.439Z,2.85
2022-11-26T08:14:03.609Z,2.88
2022-11-26T08:16:32.959Z,2.92
2022-11-26T08:19:08.272Z,2.93
2022-11-26T08:21:36.658Z,2.91
2022-11-26T08:24:05.232Z,2.92
2022-11-26T08:26:38.404Z,2.94
2022-11-26T08:29:11.152Z,2.98
2022-11-26T08:31:45.659Z,3.00
2022-11-26T08:34:16.318Z,2.99
2022-11-26T08:36:46.335Z,2.96
2022-11-26T08:39:19.077Z,2.97
2022-11-26T08:41:52.010Z,3.01
2022-11-26T08:44:21.620Z,2.98
2022-11-26T08:46:50.701Z,2.97
2022-11-26T08:49:18.916Z,2.94
2022-11-26T08:51:47.247Z,2.88
2022-11-26T08:54:15.757Z,2.84
2022-11-26T08:56:44.020Z,2.90
2022-11-26T08:59:12.318Z,2.95
2022-11-26T09:01:40.765Z,2.91
2022-11-26T09:04:09.106Z,2.90
2022-11-26T09:06:37.231Z,2.88
2022-11-26T09:09:15.450Z,2.86
2022-11-26T09:11:51.786Z,2.81
2022-11-26T09:14:23.028Z,2.87
2022-11-26T09:16:51.849Z,2.91
2022-11-26T09:19:20.818Z,2.98
2022-11-26T09:21:53.138Z,3.08
2022-11-26T09:24:21.643Z,3.15
2022-11-26T09:26:50.479Z,3.21
2022-11-26T09:29:21.380Z,3.26
2022-11-26T09:34:39.949Z,3.35
2022-11-26T09:37:08.779Z,3.43
2022-11-26T09:39:36.951Z,3.49
2022-11-26T09:42:14.038Z,3.44
2022-11-26T09:45:03.170Z,3.36
2022-11-26T09:47:37.256Z,3.33
2022-11-26T09:50:11.217Z,3.34
2022-11-26T09:52:51.289Z,3.34
2022-11-26T09:55:22.511Z,3.33
2022-11-26T09:58:25.330Z,3.37
2022-11-26T10:00:59.304Z,3.34
2022-11-26T10:03:30.109Z,3.30
2022-11-26T10:06:09.079Z,3.29
2022-11-26T10:09:14.143Z,3.26
2022-11-26T10:12:25.497Z,3.24
2022-11-26T10:15:10.815Z,3.11
2022-11-26T10:18:08.096Z,3.08
2022-11-26T10:20:49.860Z,3.05
2022-11-26T10:23:25.867Z,3.04
2022-11-26T10:26:06.262Z,3.11
2022-11-26T10:28:43.686Z,3.16
2022-11-26T10:31:26.918Z,3.17
2022-11-26T10:34:03.798Z,3.23
2022-11-26T10:36:39.658Z,3.31
2022-11-26T10:39:15.658Z,3.29
2022-11-26T10:41:44.469Z,3.25
2022-11-26T10:44:29.744Z,3.22
2022-11-26T10:46:59.608Z,3.19
2022-11-26T10:49:30.367Z,3.21
2022-11-26T10:52:02.036Z,3.22
2022-11-26T10:54:34.987Z,3.21
2022-11-26T10:57:09.055Z,3.22
2022-11-26T10:59:57.069Z,3.19
2022-11-26T11:02:39.342Z,3.16
2022-11-26T11:05:10.156Z,3.16
2022-11-26T11:07:38.469Z,3.23
2022-11-26T11:10:09.497Z,3.19
2022-11-26T11:12:42.378Z,3.17
2022-11-26T11:15:45.791Z,3.20
2022-11-26T11:18:23.350Z,3.12
2022-11-26T11:20:57.084Z,3.14
2022-11-26T11:24:00.263Z,3.08
2022-11-26T11:26:23.847Z,3.03
2022-11-26T11:28:55.094Z,3.02
2022-11-26T11:31:44.987Z,3.04
2022-11-26T11:34:20.616Z,3.04
2022-11-26T11:37:16.480Z,3.06
2022-11-26T11:39:45.458Z,3.02
2022-11-26T11:42:29.511Z,3.06
2022-11-26T11:45:00.584Z,3.07
2022-11-26T11:47:37.083Z,3.13
2022-11-26T11:50:24.147Z,3.14
2022-11-26T11:53:04.536Z,3.08
2022-11-26T11:55:32.917Z,3.10
2022-11-26T11:58:13.768Z,3.14
2022-11-26T12:01:03.482Z,3.12
2022-11-26T12:03:50.680Z,3.12
2022-11-26T12:06:19.281Z,3.13
2022-11-26T12:09:05.968Z,3.12
2022-11-26T12:11:54.474Z,3.07
2022-11-26T12:14:41.823Z,3.08
2022-11-26T12:17:36.359Z,3.08
2022-11-26T12:20:28.239Z,3.09
2022-11-26T12:23:08.068Z,3.13
2022-11-26T12:25:40.241Z,3.17
2022-11-26T12:28:18.572Z,3.22
2022-11-26T12:31:08.496Z,3.25
2022-11-26T12:33:47.239Z,3.17
2022-11-26T12:36:57.343Z,3.19
2022-11-26T12:39:53.915Z,3.14
2022-11-26T12:42:32.416Z,3.15
2022-11-26T12:45:17.890Z,3.19
2022-11-26T12:48:03.250Z,3.11
2022-11-26T12:50:59.255Z,3.03
2022-11-26T12:53:34.484Z,2.93
2022-11-26T12:56:11.117Z,2.87
2022-11-26T12:59:15.105Z,2.88
2022-11-26T13:01:43.577Z,2.66
2022-11-26T13:04:36.616Z,2.68
2022-11-26T13:07:19.572Z,2.63
2022-11-26T13:10:10.782Z,2.67
2022-11-26T13:13:02.520Z,2.60
2022-11-26T13:15:36.476Z,2.62
2022-11-26T13:18:18.254Z,2.62
2022-11-26T13:20:46.576Z,2.61
2022-11-26T13:23:34.238Z,2.66
2022-11-26T13:26:28.880Z,2.68
2022-11-26T13:29:20.602Z,2.70
2022-11-26T13:32:15.306Z,2.71
2022-11-26T13:35:01.995Z,2.63
2022-11-26T13:38:08.055Z,2.60
2022-11-26T13:41:00.934Z,2.60
2022-11-26T13:44:16.224Z,2.58
2022-11-26T13:47:16.926Z,2.54
2022-11-26T13:49:55.154Z,2.50
2022-11-26T13:52:26.023Z,2.54
2022-11-26T13:55:30.740Z,2.56
2022-11-26T13:58:16.962Z,2.51
2022-11-26T14:00:45.298Z,2.47
2022-11-26T14:03:48.238Z,2.48
2022-11-26T14:06:16.475Z,2.47
2022-11-26T14:09:03.652Z,2.45
2022-11-26T14:11:40.782Z,2.38
2022-11-26T14:14:35.424Z,2.42
2022-11-26T14:17:31.110Z,2.41
2022-11-26T14:20:06.522Z,2.38
2022-11-26T14:22:36.855Z,2.40
2022-11-26T14:25:19.807Z,2.39
2022-11-26T14:27:57.593Z,2.36
2022-11-26T14:30:28.836Z,2.37
2022-11-26T14:33:05.838Z,2.37
2022-11-26T14:35:38.017Z,2.31
2022-11-26T14:38:24.845Z,2.32
2022-11-26T14:40:59.268Z,2.29
2022-11-26T14:43:33.194Z,2.30
2022-11-26T14:46:15.192Z,2.34
2022-11-26T14:49:06.025Z,2.31
2022-11-26T14:51:35.849Z,2.25
2022-11-26T14:54:18.053Z,2.27
2022-11-26T14:56:48.846Z,2.25
2022-11-26T14:59:19.004Z,2.24
2022-11-26T15:01:52.944Z,2.23
2022-11-26T15:04:24.153Z,2.22
2022-11-26T15:06:54.777Z,2.22
2022-11-26T15:09:26.567Z,2.23
2022-11-26T15:12:16.425Z,2.25
2022-11-26T15:14:48.764Z,2.20
2022-11-26T15:17:21.012Z,2.11
2022-11-26T15:19:56.786Z,2.06
2022-11-26T15:22:34.589Z,2.06
2022-11-26T15:25:03.446Z,2.09
2022-11-26T15:27:38.210Z,2.07
2022-11-26T15:30:34.373Z,2.04
2022-11-26T15:33:34.375Z,2.01
2022-11-26T15:36:04.519Z,1.98
2022-11-26T15:38:38.986Z,1.99
2022-11-26T15:41:14.417Z,2.07
2022-11-26T15:43:46.320Z,2.09
2022-11-26T15:46:22.541Z,2.12
2022-11-26T15:48:53.917Z,2.13
2022-11-26T15:51:37.536Z,2.11
2022-11-26T15:54:18.283Z,2.10
2022-11-26T15:56:56.127Z,2.04
2022-11-26T15:59:40.865Z,2.01
2022-11-26T16:02:28.602Z,2.04
2022-11-26T16:05:20.745Z,2.04
2022-11-26T16:08:21.772Z,2.03
2022-11-26T16:11:03.005Z,2.03
2022-11-26T16:13:51.636Z,2.07
2022-11-26T16:16:23.435Z,2.06
2022-11-26T16:18:59.841Z,2.11
2022-11-26T16:21:34.306Z,2.04
2022-11-26T16:24:06.095Z,2.02
2022-11-26T16:27:18.530Z,1.95
2022-11-26T16:29:47.342Z,1.88
2022-11-26T16:32:18.124Z,1.96
2022-11-26T16:34:46.322Z,2.00
2022-11-26T16:37:30.036Z,2.04
2022-11-26T16:40:12.779Z,2.07
2022-11-26T16:42:40.987Z,2.11
2022-11-26T16:45:11.437Z,2.12
2022-11-26T16:47:46.658Z,2.12
2022-11-26T16:50:34.676Z,2.07
2022-11-26T16:53:02.926Z,2.04
2022-11-26T16:55:31.472Z,2.09
2022-11-26T16:58:01.513Z,2.11
2022-11-26T17:00:29.736Z,2.13
2022-11-26T17:02:57.972Z,2.12
2022-11-26T17:05:26.213Z,2.09
2022-11-26T17:08:14.526Z,2.06
2022-11-26T17:10:42.849Z,1.98
2022-11-26T17:13:10.970Z,1.99
2022-11-26T17:15:39.043Z,2.00
2022-11-26T17:18:18.653Z,1.99
2022-11-26T17:20:46.876Z,1.92
2022-11-26T17:23:15.482Z,1.90
2022-11-26T17:25:45.556Z,1.94
2022-11-26T17:28:15.073Z,1.95
2022-11-26T17:30:45.319Z,1.92
2022-11-26T17:33:13.558Z,1.87
2022-11-26T17:35:41.695Z,1.81
2022-11-26T17:38:20.236Z,1.81
2022-11-26T17:40:48.874Z,1.86
2022-11-26T17:43:17.353Z,1.92
2022-11-26T17:45:45.572Z,1.92
2022-11-26T17:48:14.238Z,1.91
2022-11-26T17:50:42.845Z,1.94
2022-11-26T17:53:11.140Z,1.95
2022-11-26T17:55:39.597Z,1.95
2022-11-26T17:58:12.055Z,1.91
2022-11-26T18:00:40.325Z,1.87
2022-11-26T18:03:08.595Z,1.84
2022-11-26T18:05:41.840Z,1.81
2022-11-26T18:08:10.655Z,1.85
2022-11-26T18:10:41.551Z,1.92
2022-11-26T18:13:09.727Z,1.96
2022-11-26T18:15:37.975Z,1.97
2022-11-26T18:18:07.630Z,1.97
2022-11-26T18:20:35.732Z,1.97
2022-11-26T18:23:03.971Z,1.89
2022-11-26T18:25:33.891Z,1.85
2022-11-26T18:28:02.059Z,1.87
2022-11-26T18:30:30.754Z,1.88
2022-11-26T18:32:58.946Z,1.89
2022-11-26T18:35:26.990Z,1.91
2022-11-26T18:37:55.060Z,1.90
2022-11-26T18:40:23.329Z,1.88
2022-11-26T18:42:52.526Z,1.89
2022-11-26T18:45:20.902Z,1.91
2022-11-26T18:47:49.195Z,1.87
2022-11-26T18:50:17.467Z,1.90
2022-11-26T18:52:45.699Z,1.93
2022-11-26T18:55:15.180Z,1.93
2022-11-26T18:57:43.456Z,1.93
2022-11-26T19:00:12.207Z,1.94
2022-11-26T19:02:40.418Z,1.94
2022-11-26T19:05:08.779Z,1.94
2022-11-26T19:07:37.621Z,1.93
2022-11-26T19:10:06.553Z,1.92
2022-11-26T19:12:34.798Z,1.93
2022-11-26T19:15:03.318Z,1.90
2022-11-26T19:17:31.554Z,1.84
2022-11-26T19:19:59.905Z,1.86
2022-11-26T19:22:28.252Z,1.88
2022-11-26T19:24:56.429Z,1.83
2022-11-26T19:27:24.655Z,1.84
2022-11-26T19:29:53.116Z,1.82
2022-11-26T19:32:21.280Z,1.79
2022-11-26T19:35:05.631Z,1.79
2022-11-26T19:37:34.456Z,1.79
2022-11-26T19:40:02.653Z,1.80
2022-11-26T19:42:33.227Z,1.83
2022-11-26T19:45:01.471Z,1.82
2022-11-26T19:47:29.750Z,1.84
2022-11-26T19:49:57.931Z,1.83
2022-11-26T19:52:26.265Z,1.82
2022-11-26T19:54:54.604Z,1.83
2022-11-26T19:57:22.841Z,1.85
2022-11-26T19:59:55.255Z,1.84
2022-11-26T20:02:25.062Z,1.86
2022-11-26T20:04:53.373Z,1.91
2022-11-26T20:07:21.477Z,1.92
2022-11-26T20:09:54.848Z,1.92
2022-11-26T20:12:23.007Z,1.95
2022-11-26T20:14:51.402Z,1.98
2022-11-26T20:17:19.594Z,2.00
2022-11-26T20:19:47.849Z,2.01
2022-11-26T20:22:16.036Z,1.98
2022-11-26T20:24:44.697Z,1.99
2022-11-26T20:27:16.301Z,2.01
2022-11-26T20:29:46.285Z,2.00
2022-11-26T20:32:14.899Z,1.98
2022-11-26T20:34:44.918Z,1.97
2022-11-26T20:37:13.306Z,1.94
2022-11-26T20:39:41.972Z,1.97
2022-11-26T20:42:12.256Z,2.00
2022-11-26T20:44:40.685Z,2.04
2022-11-26T20:47:09.037Z,1.97
2022-11-26T20:49:42.849Z,1.95
2022-11-26T20:52:12.122Z,2.02
2022-11-26T20:54:41.346Z,2.04
2022-11-26T20:57:09.636Z,2.08
2022-11-26T20:59:38.314Z,2.09
2022-11-26T21:02:07.243Z,2.13
2022-11-26T21:04:35.415Z,2.12
2022-11-26T21:07:04.519Z,2.14
2022-11-26T21:09:32.742Z,2.17
2022-11-26T21:12:00.986Z,2.10
2022-11-26T21:14:29.749Z,2.09
2022-11-26T21:16:57.885Z,2.11
2022-11-26T21:19:26.553Z,2.12
2022-11-26T21:21:54.735Z,2.16
2022-11-26T21:24:23.409Z,2.14
2022-11-26T21:26:51.711Z,2.09
2022-11-26T21:29:20.145Z,2.07
2022-11-26T21:31:48.277Z,2.09
2022-11-26T21:34:16.441Z,2.13
2022-11-26T21:36:44.533Z,2.17
2022-11-26T21:39:15.905Z,2.15
2022-11-26T21:41:44.141Z,2.13
2022-11-26T21:44:12.384Z,2.09
2022-11-26T21:46:40.720Z,2.11
2022-11-26T21:49:09.101Z,2.15
2022-11-26T21:51:37.883Z,2.17
2022-11-26T21:54:09.757Z,2.16
2022-11-26T21:56:38.272Z,2.14
2022-11-26T21:59:06.398Z,2.11
2022-11-26T22:01:36.347Z,2.08
2022-11-26T22:04:18.427Z,2.05
2022-11-26T22:06:48.962Z,2.03
2022-11-26T22:09:17.669Z,1.99
2022-11-26T22:11:46.787Z,2.00
2022-11-26T22:14:16.886Z,2.00
2022-11-26T22:16:45.396Z,2.01
2022-11-26T22:19:13.948Z,2.00
2022-11-26T22:21:42.940Z,1.98
2022-11-26T22:24:20.479Z,1.92
2022-11-26T22:26:48.622Z,1.90
2022-11-26T22:29:19.455Z,1.87
2022-11-26T22:31:48.686Z,1.88
2022-11-26T22:34:22.174Z,1.91
2022-11-26T22:36:51.115Z,1.89
2022-11-26T22:39:20.323Z,1.89
2022-11-26T22:41:48.733Z,1.88
2022-11-26T22:44:17.618Z,1.90
2022-11-26T22:46:46.073Z,1.93
2022-11-26T22:49:19.119Z,1.94
2022-11-26T22:51:47.543Z,1.94
2022-11-26T22:54:18.371Z,1.94
2022-11-26T22:56:46.758Z,1.96
2022-11-26T22:59:15.581Z,1.97
2022-11-26T23:01:43.788Z,1.99
2022-11-26T23:04:12.124Z,2.01
2022-11-26T23:06:40.843Z,2.02
2022-11-26T23:09:11.485Z,1.99
2022-11-26T23:11:41.926Z,1.98
2022-11-26T23:14:12.137Z,1.99
2022-11-26T23:16:42.795Z,2.00
2022-11-26T23:19:15.035Z,2.01
2022-11-26T23:21:47.048Z,2.03
2022-11-26T23:24:16.597Z,2.05
2022-11-26T23:26:45.376Z,2.05
2022-11-26T23:29:14.175Z,2.03
2022-11-26T23:31:44.539Z,2.04
2022-11-26T23:34:14.136Z,2.04
2022-11-26T23:36:42.897Z,2.06
2022-11-26T23:39:12.527Z,2.03
2022-11-26T23:41:40.725Z,1.99
2022-11-26T23:44:08.861Z,2.01
2022-11-26T23:46:37.037Z,2.02
2022-11-26T23:49:05.266Z,2.03
2022-11-26T23:51:34.019Z,2.04
2022-11-26T23:54:02.474Z,2.06
2022-11-26T23:56:33.379Z,2.07
2022-11-26T23:59:04.432Z,2.06
